Time;durP1;ratioP1;P1;durP2;ratioP2;P2;SDS_P1;SDS_P2;PMS_P1;PMS_P2;Temp;Humidity;BMP_temperature;BMP_pressure;BME280_temperature;BME280_humidity;BME280_pressure;Samples;Min_cycle;Max_cycle;Signal;HPM_P1;HPM_P2
2022/06/24 00:01:40;;;;;;;2.53;1.90;;;;;;;;;;5056029;28;20729;-72
2022/06/24 00:04:08;;;;;;;3.70;2.00;;;;;;;;;;5056223;28;20746;-73
2022/06/24 00:06:45;;;;;;;5.00;1.97;;;;;;;;;;5056542;28;20472;-72
2022/06/24 00:09:14;;;;;;;4.03;2.17;;;;;;;;;;5055328;28;20464;-72
2022/06/24 00:11:43;;;;;;;5.17;2.63;;;;;;;;;;5055793;28;20449;-72
2022/06/24 00:14:11;;;;;;;6.37;2.30;;;;;;;;;;5054361;28;20450;-72
2022/06/24 00:16:55;;;;;;;2.70;1.90;;;;;;;;;;5056198;28;20462;-72
2022/06/24 00:19:26;;;;;;;3.47;1.90;;;;;;;;;;5055463;28;20540;-72
2022/06/24 00:22:05;;;;;;;3.17;2.30;;;;;;;;;;5054694;28;20939;-73
2022/06/24 00:24:34;;;;;;;4.80;2.30;;;;;;;;;;5055969;28;20476;-73
2022/06/24 00:27:04;;;;;;;5.23;2.40;;;;;;;;;;5055789;28;20461;-73
2022/06/24 00:29:33;;;;;;;2.83;2.07;;;;;;;;;;5055230;28;20537;-73
2022/06/24 00:32:01;;;;;;;7.20;2.30;;;;;;;;;;5054894;28;20473;-72
2022/06/24 00:34:29;;;;;;;4.00;2.53;;;;;;;;;;5055778;28;20457;-73
2022/06/24 00:36:57;;;;;;;3.37;2.17;;;;;;;;;;5056379;28;20464;-73
2022/06/24 00:39:33;;;;;;;3.33;2.07;;;;;;;;;;5055166;28;20450;-72
2022/06/24 00:42:05;;;;;;;3.23;2.03;;;;;;;;;;5055276;28;20460;-72
2022/06/24 00:44:40;;;;;;;3.53;2.73;;;;;;;;;;5055582;28;20552;-72
2022/06/24 00:47:11;;;;;;;3.33;1.93;;;;;;;;;;5055206;28;20523;-73
2022/06/24 00:49:39;;;;;;;2.83;1.93;;;;;;;;;;5055326;28;20460;-72
2022/06/24 00:52:08;;;;;;;3.73;1.73;;;;;;;;;;5055826;28;20862;-72
2022/06/24 00:54:36;;;;;;;6.20;2.17;;;;;;;;;;5055660;28;20464;-72
2022/06/24 00:57:06;;;;;;;3.90;2.17;;;;;;;;;;5054683;28;20458;-72
2022/06/24 00:59:35;;;;;;;3.13;2.27;;;;;;;;;;5056007;28;20470;-72
2022/06/24 01:02:06;;;;;;;4.87;2.67;;;;;;;;;;5054789;28;20457;-72
2022/06/24 01:04:34;;;;;;;3.50;1.90;;;;;;;;;;5055228;28;20544;-72
2022/06/24 01:07:02;;;;;;;3.13;2.50;;;;;;;;;;5055659;28;20519;-71
2022/06/24 01:09:29;;;;;;;4.30;2.27;;;;;;;;;;5054873;28;20800;-71
2022/06/24 01:11:57;;;;;;;3.33;2.10;;;;;;;;;;5054723;28;20461;-72
2022/06/24 01:14:30;;;;;;;3.00;2.20;;;;;;;;;;5055099;28;20515;-73
2022/06/24 01:16:58;;;;;;;6.23;2.10;;;;;;;;;;5055281;28;20566;-72
2022/06/24 01:19:28;;;;;;;5.93;2.30;;;;;;;;;;5054531;28;20468;-72
2022/06/24 01:21:58;;;;;;;5.60;2.20;;;;;;;;;;5054144;28;20502;-72
2022/06/24 01:24:28;;;;;;;4.40;2.17;;;;;;;;;;5054371;28;20815;-72
2022/06/24 01:26:57;;;;;;;3.60;2.30;;;;;;;;;;5054466;28;20582;-72
2022/06/24 01:29:25;;;;;;;5.93;2.30;;;;;;;;;;5054546;28;20493;-73
2022/06/24 01:31:53;;;;;;;4.03;2.70;;;;;;;;;;5053924;28;20465;-72
2022/06/24 01:34:22;;;;;;;4.17;2.40;;;;;;;;;;5054422;28;20445;-73
2022/06/24 01:36:50;;;;;;;3.30;2.50;;;;;;;;;;5053800;28;20459;-73
2022/06/24 01:39:20;;;;;;;3.07;2.23;;;;;;;;;;5054372;28;20453;-72
2022/06/24 01:41:48;;;;;;;3.50;2.30;;;;;;;;;;5053940;28;20450;-72
2022/06/24 01:44:16;;;;;;;3.30;2.00;;;;;;;;;;5053314;28;20553;-72
2022/06/24 01:46:44;;;;;;;3.20;2.40;;;;;;;;;;5053895;28;20572;-72
2022/06/24 01:49:12;;;;;;;4.47;2.30;;;;;;;;;;5053594;28;20503;-72
2022/06/24 01:51:41;;;;;;;3.70;2.20;;;;;;;;;;5053805;28;20452;-72
2022/06/24 01:54:09;;;;;;;3.33;2.17;;;;;;;;;;5053652;28;20536;-73
2022/06/24 01:56:38;;;;;;;4.37;3.87;;;;;;;;;;5054335;28;20859;-72
2022/06/24 01:59:06;;;;;;;3.20;2.53;;;;;;;;;;5053544;28;20518;-72
2022/06/24 02:01:33;;;;;;;3.53;2.50;;;;;;;;;;5053969;28;20449;-72
2022/06/24 02:04:01;;;;;;;5.60;2.67;;;;;;;;;;5053681;28;21079;-73
2022/06/24 02:06:29;;;;;;;3.50;2.50;;;;;;;;;;5053695;28;20485;-72
2022/06/24 02:08:56;;;;;;;3.20;2.20;;;;;;;;;;5053842;28;20479;-72
2022/06/24 02:14:11;;;;;;;4.30;2.53;;;;;;;;;;5053763;28;20424;-72
2022/06/24 02:16:39;;;;;;;4.33;2.50;;;;;;;;;;5052856;28;20445;-72
2022/06/24 02:19:07;;;;;;;5.70;2.80;;;;;;;;;;5054135;28;20463;-72
2022/06/24 02:21:39;;;;;;;6.17;3.30;;;;;;;;;;5053184;28;20461;-72
2022/06/24 02:24:08;;;;;;;4.50;2.30;;;;;;;;;;5053819;28;20460;-72
2022/06/24 02:26:35;;;;;;;5.00;2.50;;;;;;;;;;5053039;28;20489;-73
2022/06/24 02:29:03;;;;;;;5.00;3.00;;;;;;;;;;5053607;28;20445;-72
2022/06/24 02:31:33;;;;;;;3.93;2.63;;;;;;;;;;5052280;28;20445;-73
2022/06/24 02:34:00;;;;;;;4.47;2.67;;;;;;;;;;5053026;28;20453;-72
2022/06/24 02:36:28;;;;;;;3.57;2.10;;;;;;;;;;5053451;28;20467;-72
2022/06/24 02:38:56;;;;;;;7.67;3.40;;;;;;;;;;5056964;28;20842;-72
2022/06/24 02:41:24;;;;;;;4.17;2.30;;;;;;;;;;5056778;28;20834;-72
2022/06/24 02:43:52;;;;;;;3.27;2.50;;;;;;;;;;5057237;28;20476;-72
2022/06/24 02:46:19;;;;;;;3.70;2.93;;;;;;;;;;5057837;28;20606;-72
2022/06/24 02:48:49;;;;;;;4.03;2.77;;;;;;;;;;5057565;28;20457;-72
2022/06/24 02:51:16;;;;;;;3.87;2.77;;;;;;;;;;5057237;28;20756;-72
2022/06/24 02:53:46;;;;;;;3.10;2.70;;;;;;;;;;5057114;28;20476;-73
2022/06/24 02:56:15;;;;;;;5.13;2.80;;;;;;;;;;5056927;28;20461;-73
2022/06/24 02:58:43;;;;;;;5.80;2.50;;;;;;;;;;5056928;28;20461;-71
2022/06/24 03:01:11;;;;;;;3.97;2.87;;;;;;;;;;5057239;28;20523;-72
2022/06/24 03:03:39;;;;;;;4.70;2.67;;;;;;;;;;5056667;28;20540;-72
2022/06/24 03:06:12;;;;;;;4.60;3.00;;;;;;;;;;5055996;28;20495;-72
2022/06/24 03:08:40;;;;;;;6.07;2.83;;;;;;;;;;5056427;28;20449;-73
2022/06/24 03:11:07;;;;;;;3.17;2.67;;;;;;;;;;5056103;28;20465;-73
2022/06/24 03:13:35;;;;;;;3.80;2.80;;;;;;;;;;5056590;28;20851;-72
2022/06/24 03:16:02;;;;;;;5.70;2.73;;;;;;;;;;5056837;28;20900;-72
2022/06/24 03:18:30;;;;;;;5.10;2.93;;;;;;;;;;5056246;28;20489;-72
2022/06/24 03:20:58;;;;;;;3.67;2.53;;;;;;;;;;5056831;28;20924;-72
2022/06/24 03:23:27;;;;;;;3.00;2.30;;;;;;;;;;5056761;28;20463;-72
2022/06/24 03:25:55;;;;;;;4.40;2.30;;;;;;;;;;5056439;28;20497;-73
2022/06/24 03:28:22;;;;;;;3.67;2.80;;;;;;;;;;5056181;28;20507;-72
2022/06/24 03:30:51;;;;;;;4.87;2.70;;;;;;;;;;5056525;28;20454;-73
2022/06/24 03:33:23;;;;;;;4.07;3.00;;;;;;;;;;5055961;28;20536;-72
2022/06/24 03:35:51;;;;;;;4.20;2.80;;;;;;;;;;5056731;28;20861;-72
2022/06/24 03:38:18;;;;;;;4.00;3.03;;;;;;;;;;5055752;28;20446;-72
2022/06/24 03:40:47;;;;;;;3.60;2.57;;;;;;;;;;5056516;28;20450;-72
2022/06/24 03:43:15;;;;;;;5.70;2.53;;;;;;;;;;5057298;28;20505;-72
2022/06/24 03:45:42;;;;;;;6.03;2.67;;;;;;;;;;5055264;28;20489;-72
2022/06/24 03:48:10;;;;;;;4.57;3.13;;;;;;;;;;5055031;28;20457;-71
2022/06/24 03:50:38;;;;;;;8.43;2.67;;;;;;;;;;5055369;28;20446;-72
2022/06/24 03:53:06;;;;;;;4.77;2.90;;;;;;;;;;5056419;28;20533;-71
2022/06/24 03:55:33;;;;;;;4.10;3.07;;;;;;;;;;5055998;28;20776;-72
2022/06/24 03:58:03;;;;;;;3.67;2.80;;;;;;;;;;5055748;28;20464;-72
2022/06/24 04:00:31;;;;;;;4.70;2.80;;;;;;;;;;5055816;28;20538;-71
2022/06/24 04:02:58;;;;;;;5.40;3.10;;;;;;;;;;5055343;28;20757;-72
2022/06/24 04:05:26;;;;;;;4.73;2.97;;;;;;;;;;5055202;28;20520;-72
2022/06/24 04:07:54;;;;;;;4.37;2.90;;;;;;;;;;5055476;28;20527;-72
2022/06/24 04:10:22;;;;;;;5.20;3.07;;;;;;;;;;5055732;28;20534;-72
2022/06/24 04:12:49;;;;;;;4.77;2.80;;;;;;;;;;5055916;28;20524;-72
2022/06/24 04:15:19;;;;;;;3.43;2.83;;;;;;;;;;5055461;28;20457;-72
2022/06/24 04:17:47;;;;;;;6.20;3.00;;;;;;;;;;5055147;28;21106;-72
2022/06/24 04:20:16;;;;;;;5.30;2.60;;;;;;;;;;5055328;28;20445;-72
2022/06/24 04:22:43;;;;;;;3.60;2.90;;;;;;;;;;5054722;28;20862;-72
2022/06/24 04:25:12;;;;;;;3.37;2.50;;;;;;;;;;5054713;28;20512;-72
2022/06/24 04:27:40;;;;;;;5.77;3.27;;;;;;;;;;5054562;28;20869;-72
2022/06/24 04:30:08;;;;;;;6.43;3.23;;;;;;;;;;5055278;28;20636;-72
2022/06/24 04:32:37;;;;;;;4.90;2.73;;;;;;;;;;5053596;28;21118;-72
2022/06/24 04:35:05;;;;;;;3.60;2.50;;;;;;;;;;5054035;28;20486;-72
2022/06/24 04:37:35;;;;;;;4.17;2.63;;;;;;;;;;5053493;28;20442;-72
2022/06/24 04:40:03;;;;;;;6.10;2.77;;;;;;;;;;5054919;28;20523;-72
2022/06/24 04:42:31;;;;;;;4.23;2.60;;;;;;;;;;5054295;28;20449;-73
2022/06/24 04:44:59;;;;;;;6.83;3.00;;;;;;;;;;5054072;28;20536;-72
2022/06/24 04:47:27;;;;;;;5.37;3.00;;;;;;;;;;5053929;28;20485;-72
2022/06/24 04:49:56;;;;;;;7.83;2.77;;;;;;;;;;5053678;28;20469;-73
2022/06/24 04:52:26;;;;;;;6.00;2.90;;;;;;;;;;5088419;28;20444;-72
2022/06/24 04:54:54;;;;;;;5.97;2.73;;;;;;;;;;5093544;28;20456;-73
2022/06/24 04:57:22;;;;;;;7.03;2.80;;;;;;;;;;5093361;28;20917;-74
2022/06/24 04:59:49;;;;;;;8.07;3.30;;;;;;;;;;5093204;28;20532;-74
2022/06/24 05:02:17;;;;;;;5.20;2.80;;;;;;;;;;5093447;28;20467;-72
2022/06/24 05:04:50;;;;;;;6.67;3.70;;;;;;;;;;5093381;28;21102;-72
2022/06/24 05:07:21;;;;;;;8.13;3.03;;;;;;;;;;5074255;28;20488;-72
2022/06/24 05:09:49;;;;;;;10.80;3.37;;;;;;;;;;5071416;28;20563;-71
2022/06/24 05:12:17;;;;;;;4.80;3.20;;;;;;;;;;5071823;28;20453;-72
2022/06/24 05:14:45;;;;;;;3.77;2.57;;;;;;;;;;5057595;28;20541;-72
2022/06/24 05:17:13;;;;;;;5.53;2.93;;;;;;;;;;5051532;28;20450;-71
2022/06/24 05:19:40;;;;;;;6.60;2.60;;;;;;;;;;5050372;28;20445;-73
2022/06/24 05:22:08;;;;;;;4.83;2.87;;;;;;;;;;5051521;28;20752;-72
2022/06/24 05:24:37;;;;;;;4.37;2.87;;;;;;;;;;5050932;28;20472;-73
2022/06/24 05:27:05;;;;;;;6.00;2.90;;;;;;;;;;5051788;28;20511;-73
2022/06/24 05:29:33;;;;;;;6.33;2.90;;;;;;;;;;5050672;28;20458;-73
2022/06/24 05:32:01;;;;;;;6.13;2.80;;;;;;;;;;5051237;28;20473;-73
2022/06/24 05:34:29;;;;;;;8.40;2.90;;;;;;;;;;5050944;28;20457;-73
2022/06/24 05:36:56;;;;;;;5.87;3.20;;;;;;;;;;5050871;28;20446;-73
2022/06/24 05:39:24;;;;;;;5.50;3.03;;;;;;;;;;5050038;28;20452;-73
2022/06/24 05:41:53;;;;;;;3.30;2.80;;;;;;;;;;5050425;28;20465;-73
2022/06/24 05:44:21;;;;;;;6.23;2.60;;;;;;;;;;5050750;28;20960;-73
2022/06/24 05:46:51;;;;;;;12.10;3.83;;;;;;;;;;5049350;28;20485;-73
2022/06/24 05:49:19;;;;;;;4.00;3.00;;;;;;;;;;5051438;28;20881;-73
2022/06/24 05:51:47;;;;;;;5.57;3.20;;;;;;;;;;5049705;28;20467;-73
2022/06/24 05:57:02;;;;;;;5.10;2.90;;;;;;;;;;5055750;28;20505;-72
2022/06/24 05:59:29;;;;;;;5.57;3.20;;;;;;;;;;5068107;28;20463;-72
2022/06/24 06:01:57;;;;;;;3.97;2.80;;;;;;;;;;5069500;28;20541;-71
2022/06/24 06:04:25;;;;;;;4.30;2.77;;;;;;;;;;5056245;28;20469;-71
2022/06/24 06:06:53;;;;;;;3.00;2.67;;;;;;;;;;5050074;28;20584;-72
2022/06/24 06:09:21;;;;;;;7.90;3.43;;;;;;;;;;5050595;28;20460;-72
2022/06/24 06:11:49;;;;;;;6.63;2.90;;;;;;;;;;5049583;28;20458;-73
2022/06/24 06:14:18;;;;;;;5.13;3.20;;;;;;;;;;5048155;28;20454;-73
2022/06/24 06:16:47;;;;;;;3.67;2.57;;;;;;;;;;5056680;28;21133;-72
2022/06/24 06:19:14;;;;;;;3.90;3.43;;;;;;;;;;5049246;28;20441;-72
2022/06/24 06:21:42;;;;;;;4.80;3.50;;;;;;;;;;5049979;28;20532;-72
2022/06/24 06:24:10;;;;;;;5.13;3.37;;;;;;;;;;5050739;28;20503;-71
2022/06/24 06:26:38;;;;;;;5.03;2.90;;;;;;;;;;5051973;28;20561;-71
2022/06/24 06:29:08;;;;;;;4.47;2.97;;;;;;;;;;5050369;28;20537;-72
2022/06/24 06:31:40;;;;;;;3.90;3.40;;;;;;;;;;5051595;28;20465;-72
2022/06/24 06:34:08;;;;;;;4.33;3.23;;;;;;;;;;5049883;28;20878;-73
2022/06/24 06:36:35;;;;;;;6.80;3.40;;;;;;;;;;5048103;28;20456;-73
2022/06/24 06:39:03;;;;;;;5.07;3.87;;;;;;;;;;5049868;28;21049;-73
2022/06/24 06:41:31;;;;;;;3.23;2.63;;;;;;;;;;5060133;28;20526;-72
2022/06/24 06:43:59;;;;;;;4.80;3.67;;;;;;;;;;5051865;28;20479;-72
2022/06/24 06:46:27;;;;;;;3.60;2.87;;;;;;;;;;5048876;28;20534;-72
2022/06/24 06:49:00;;;;;;;3.30;2.73;;;;;;;;;;5054106;28;20468;-72
2022/06/24 06:51:30;;;;;;;6.73;3.90;;;;;;;;;;5069033;28;20479;-72
2022/06/24 06:53:58;;;;;;;4.60;3.53;;;;;;;;;;5070074;28;20868;-72
2022/06/24 06:56:26;;;;;;;5.17;4.10;;;;;;;;;;5068863;28;20879;-73
2022/06/24 06:58:54;;;;;;;4.47;3.67;;;;;;;;;;5069814;28;20860;-73
2022/06/24 07:01:23;;;;;;;4.50;3.63;;;;;;;;;;5069417;28;20459;-73
2022/06/24 07:03:51;;;;;;;4.33;3.90;;;;;;;;;;5069076;28;20578;-72
2022/06/24 07:06:20;;;;;;;5.37;3.50;;;;;;;;;;5068737;28;20475;-73
2022/06/24 07:08:48;;;;;;;4.20;3.60;;;;;;;;;;5069160;28;20579;-73
2022/06/24 07:11:15;;;;;;;5.93;3.80;;;;;;;;;;5069513;28;20460;-73
2022/06/24 07:13:43;;;;;;;8.53;4.40;;;;;;;;;;5069265;28;20467;-72
2022/06/24 07:16:12;;;;;;;6.20;4.27;;;;;;;;;;5068841;28;20805;-72
2022/06/24 07:18:40;;;;;;;5.03;3.07;;;;;;;;;;5068805;28;20459;-72
2022/06/24 07:21:14;;;;;;;3.67;3.00;;;;;;;;;;5069541;28;20581;-72
2022/06/24 07:23:44;;;;;;;6.43;3.33;;;;;;;;;;5072407;28;20548;-72
2022/06/24 07:26:12;;;;;;;5.63;3.63;;;;;;;;;;5073676;28;20452;-71
2022/06/24 07:28:41;;;;;;;7.53;3.30;;;;;;;;;;5067468;28;20528;-70
2022/06/24 07:31:16;;;;;;;5.03;3.30;;;;;;;;;;5056715;28;20456;-72
2022/06/24 07:33:44;;;;;;;5.07;3.13;;;;;;;;;;5064871;28;20451;-72
2022/06/24 07:36:12;;;;;;;6.13;4.33;;;;;;;;;;5069312;28;20444;-72
2022/06/24 07:38:45;;;;;;;6.07;3.50;;;;;;;;;;5066401;28;20513;-70
2022/06/24 07:41:14;;;;;;;5.50;3.60;;;;;;;;;;5066393;28;20445;-72
2022/06/24 07:43:45;;;;;;;4.07;3.00;;;;;;;;;;5053457;28;20460;-72
2022/06/24 07:46:13;;;;;;;3.77;3.07;;;;;;;;;;5058766;28;21052;-72
2022/06/24 07:48:41;;;;;;;5.93;3.50;;;;;;;;;;5057861;28;20504;-70
2022/06/24 07:51:15;;;;;;;6.20;3.67;;;;;;;;;;5052752;28;20448;-72
2022/06/24 07:53:44;;;;;;;4.20;3.80;;;;;;;;;;5052723;28;20525;-71
2022/06/24 07:59:03;;;;;;;3.93;3.47;;;;;;;;;;5054029;28;20532;-72
2022/06/24 08:01:31;;;;;;;4.30;3.53;;;;;;;;;;5054068;28;20459;-71
2022/06/24 08:03:59;;;;;;;4.37;3.57;;;;;;;;;;5054884;28;20890;-71
2022/06/24 08:06:27;;;;;;;4.00;3.60;;;;;;;;;;5053092;28;20549;-72
2022/06/24 08:08:55;;;;;;;5.67;3.20;;;;;;;;;;5052566;28;20584;-71
2022/06/24 08:11:23;;;;;;;4.00;3.60;;;;;;;;;;5064547;28;20846;-72
2022/06/24 08:13:54;;;;;;;5.23;4.23;;;;;;;;;;5066851;28;20912;-72
2022/06/24 08:16:25;;;;;;;10.63;5.40;;;;;;;;;;5065922;28;20552;-72
2022/06/24 08:18:57;;;;;;;8.77;4.53;;;;;;;;;;5055909;28;20471;-72
2022/06/24 08:21:29;;;;;;;5.07;4.40;;;;;;;;;;5052647;28;21096;-71
2022/06/24 08:23:58;;;;;;;5.50;4.10;;;;;;;;;;5054075;28;20472;-71
2022/06/24 08:26:26;;;;;;;5.40;3.87;;;;;;;;;;5052463;28;20469;-71
2022/06/24 08:28:54;;;;;;;5.10;4.10;;;;;;;;;;5058277;28;20568;-72
2022/06/24 08:31:24;;;;;;;4.83;3.77;;;;;;;;;;5055281;28;20469;-72
2022/06/24 08:33:53;;;;;;;6.53;4.43;;;;;;;;;;5050681;28;20976;-71
2022/06/24 08:36:24;;;;;;;4.43;3.87;;;;;;;;;;5051719;28;20468;-72
2022/06/24 08:38:52;;;;;;;5.90;4.43;;;;;;;;;;5065766;28;21120;-72
2022/06/24 08:41:22;;;;;;;5.07;3.80;;;;;;;;;;5071581;28;20453;-72
2022/06/24 08:43:55;;;;;;;5.80;4.10;;;;;;;;;;5064917;28;20544;-72
2022/06/24 08:46:25;;;;;;;4.13;3.73;;;;;;;;;;5053029;28;20461;-72
2022/06/24 08:48:58;;;;;;;10.07;4.10;;;;;;;;;;5053206;28;20510;-72
2022/06/24 08:51:31;;;;;;;5.50;3.80;;;;;;;;;;5053055;28;20454;-70
2022/06/24 08:54:00;;;;;;;5.40;4.10;;;;;;;;;;5051995;28;20492;-72
2022/06/24 08:56:31;;;;;;;5.07;4.57;;;;;;;;;;5051980;28;20522;-72
2022/06/24 08:59:01;;;;;;;4.57;4.17;;;;;;;;;;5051895;28;20454;-72
2022/06/24 09:01:32;;;;;;;7.90;4.30;;;;;;;;;;5054101;28;20522;-71
2022/06/24 09:04:00;;;;;;;6.80;4.30;;;;;;;;;;5052079;28;20477;-71
2022/06/24 09:06:27;;;;;;;4.97;4.20;;;;;;;;;;5053048;28;20944;-71
2022/06/24 09:08:58;;;;;;;5.53;4.73;;;;;;;;;;5052878;28;20489;-72
2022/06/24 09:11:28;;;;;;;8.63;4.37;;;;;;;;;;5066266;28;20459;-71
2022/06/24 09:14:00;;;;;;;5.50;3.93;;;;;;;;;;5072443;28;20476;-73
2022/06/24 09:16:27;;;;;;;4.97;4.10;;;;;;;;;;5071532;28;20488;-73
2022/06/24 09:18:57;;;;;;;4.90;3.67;;;;;;;;;;5071524;28;20864;-73
2022/06/24 09:21:28;;;;;;;5.80;4.10;;;;;;;;;;5053437;28;20545;-73
2022/06/24 09:24:02;;;;;;;7.90;4.40;;;;;;;;;;5060155;28;20958;-72
2022/06/24 09:26:31;;;;;;;4.80;4.30;;;;;;;;;;5071856;28;20460;-72
2022/06/24 09:28:59;;;;;;;5.87;4.20;;;;;;;;;;5071176;28;20512;-71
2022/06/24 09:31:31;;;;;;;5.40;3.87;;;;;;;;;;5070833;28;20445;-74
2022/06/24 09:34:09;;;;;;;3.90;3.40;;;;;;;;;;5071160;28;20535;-73
2022/06/24 09:36:41;;;;;;;5.33;4.07;;;;;;;;;;5068132;28;20456;-73
2022/06/24 09:39:17;;;;;;;5.93;4.10;;;;;;;;;;5061351;28;20444;-74
2022/06/24 09:41:53;;;;;;;5.77;4.20;;;;;;;;;;5059300;28;20453;-72
2022/06/24 09:44:21;;;;;;;7.93;4.20;;;;;;;;;;5049612;28;21088;-71
2022/06/24 09:46:50;;;;;;;5.80;4.53;;;;;;;;;;5054789;28;20969;-72
2022/06/24 09:49:19;;;;;;;6.17;3.90;;;;;;;;;;5060969;28;21000;-72
2022/06/24 09:51:47;;;;;;;7.47;4.50;;;;;;;;;;5049329;28;20469;-72
2022/06/24 09:54:16;;;;;;;5.00;4.50;;;;;;;;;;5055000;28;20468;-71
2022/06/24 09:56:46;;;;;;;5.07;4.37;;;;;;;;;;5050124;28;21197;-73
2022/06/24 10:02:05;;;;;;;4.30;3.90;;;;;;;;;;5052339;28;20444;-73
2022/06/24 10:04:37;;;;;;;6.17;5.57;;;;;;;;;;5050442;28;20919;-73
2022/06/24 10:07:08;;;;;;;7.60;4.07;;;;;;;;;;5061934;28;20555;-73
2022/06/24 10:09:37;;;;;;;6.93;4.40;;;;;;;;;;5063959;28;20476;-73
2022/06/24 10:12:06;;;;;;;5.10;4.33;;;;;;;;;;5057543;28;20460;-74
2022/06/24 10:14:35;;;;;;;6.40;4.60;;;;;;;;;;5050885;28;21011;-75
2022/06/24 10:17:03;;;;;;;8.70;4.70;;;;;;;;;;5051274;28;20564;-72
2022/06/24 10:19:32;;;;;;;6.57;4.47;;;;;;;;;;5056618;28;20496;-72
2022/06/24 10:22:02;;;;;;;5.50;4.40;;;;;;;;;;5090818;28;20548;-74
2022/06/24 10:24:40;;;;;;;7.33;4.97;;;;;;;;;;5058690;28;20477;-73
2022/06/24 10:27:08;;;;;;;9.40;6.33;;;;;;;;;;5055679;28;20486;-73
2022/06/24 10:29:36;;;;;;;6.30;4.63;;;;;;;;;;5070883;28;20477;-72
2022/06/24 10:32:10;;;;;;;6.97;5.20;;;;;;;;;;5054189;28;20476;-73
2022/06/24 10:34:39;;;;;;;6.20;4.67;;;;;;;;;;5050738;28;20526;-73
2022/06/24 10:37:24;;;;;;;8.07;5.30;;;;;;;;;;5050135;28;20453;-73
2022/06/24 10:39:53;;;;;;;7.20;4.53;;;;;;;;;;5055259;28;20466;-73
2022/06/24 10:42:23;;;;;;;4.97;4.57;;;;;;;;;;5052138;28;20468;-74
2022/06/24 10:45:00;;;;;;;13.70;5.53;;;;;;;;;;5053728;28;20583;-73
2022/06/24 10:47:37;;;;;;;6.10;5.03;;;;;;;;;;5049862;28;20457;-70
2022/06/24 10:50:14;;;;;;;4.90;4.37;;;;;;;;;;5050983;28;20476;-72
2022/06/24 10:53:10;;;;;;;4.90;4.40;;;;;;;;;;5059813;28;20471;-74
2022/06/24 10:55:43;;;;;;;8.60;4.40;;;;;;;;;;5057492;28;20448;-72
2022/06/24 10:58:17;;;;;;;6.60;4.63;;;;;;;;;;5059357;28;20552;-74
2022/06/24 11:00:56;;;;;;;5.70;5.20;;;;;;;;;;5055793;28;20991;-74
2022/06/24 11:03:25;;;;;;;6.13;4.87;;;;;;;;;;5054044;28;20465;-74
2022/06/24 11:05:54;;;;;;;9.70;7.20;;;;;;;;;;5056391;28;20966;-72
2022/06/24 11:08:31;;;;;;;4.87;4.03;;;;;;;;;;5062351;28;20516;-75
2022/06/24 11:11:00;;;;;;;5.87;4.13;;;;;;;;;;5076025;28;20456;-72
2022/06/24 11:13:28;;;;;;;5.37;4.87;;;;;;;;;;5074777;28;20468;-73
2022/06/24 11:15:58;;;;;;;8.27;5.30;;;;;;;;;;5073022;28;20468;-73
2022/06/24 11:18:26;;;;;;;8.60;4.80;;;;;;;;;;5074732;28;20729;-73
2022/06/24 11:20:59;;;;;;;5.33;4.83;;;;;;;;;;5069790;28;20475;-74
2022/06/24 11:23:29;;;;;;;9.00;4.50;;;;;;;;;;5055349;28;20920;-74
2022/06/24 11:25:58;;;;;;;5.77;4.67;;;;;;;;;;5053628;28;20480;-74
2022/06/24 11:28:28;;;;;;;6.20;4.90;;;;;;;;;;5053119;28;20513;-72
2022/06/24 11:30:58;;;;;;;8.00;4.83;;;;;;;;;;5052086;28;20469;-73
2022/06/24 11:33:29;;;;;;;5.87;5.27;;;;;;;;;;5067945;28;20460;-72
2022/06/24 11:36:04;;;;;;;5.47;4.40;;;;;;;;;;5057892;28;20453;-73
2022/06/24 11:38:36;;;;;;;6.00;5.40;;;;;;;;;;5062324;28;20440;-74
2022/06/24 11:41:04;;;;;;;8.23;5.10;;;;;;;;;;5060958;28;20532;-73
2022/06/24 11:43:35;;;;;;;7.50;4.70;;;;;;;;;;5056903;28;20495;-74
2022/06/24 11:46:11;;;;;;;10.50;4.10;;;;;;;;;;5057368;28;20492;-71
2022/06/24 11:48:39;;;;;;;4.70;3.50;;;;;;;;;;5060420;28;20476;-73
2022/06/24 11:51:17;;;;;;;5.03;4.10;;;;;;;;;;5062899;28;20488;-74
2022/06/24 11:53:56;;;;;;;14.23;4.20;;;;;;;;;;5060980;28;20468;-73
2022/06/24 11:56:27;;;;;;;6.30;4.70;;;;;;;;;;5058252;28;20449;-73
2022/06/24 11:59:01;;;;;;;5.00;4.50;;;;;;;;;;5060262;28;20460;-73
2022/06/24 12:01:30;;;;;;;9.73;5.30;;;;;;;;;;5072723;28;20453;-73
2022/06/24 12:04:00;;;;;;;5.57;4.10;;;;;;;;;;5066253;28;20460;-73
2022/06/24 12:06:31;;;;;;;9.83;4.60;;;;;;;;;;5079863;28;20463;-71
2022/06/24 12:09:00;;;;;;;8.03;4.27;;;;;;;;;;5054206;28;20485;-73
2022/06/24 12:11:29;;;;;;;5.50;4.67;;;;;;;;;;5060520;28;20464;-73
2022/06/24 12:13:58;;;;;;;6.07;4.10;;;;;;;;;;5068878;28;20492;-73
2022/06/24 12:16:27;;;;;;;6.63;5.03;;;;;;;;;;5067506;28;20451;-73
2022/06/24 12:18:57;;;;;;;7.57;4.80;;;;;;;;;;5056225;28;20461;-72
2022/06/24 12:21:32;;;;;;;7.87;3.90;;;;;;;;;;5057096;28;20535;-72
2022/06/24 12:24:03;;;;;;;5.13;4.27;;;;;;;;;;5058741;28;20475;-72
2022/06/24 12:26:31;;;;;;;5.40;3.60;;;;;;;;;;5053047;28;20544;-72
2022/06/24 12:29:00;;;;;;;9.23;8.30;;;;;;;;;;5053475;28;20786;-72
2022/06/24 12:31:34;;;;;;;23.13;19.83;;;;;;;;;;5069501;28;20461;-72
2022/06/24 12:34:04;;;;;;;5.77;4.00;;;;;;;;;;5058091;28;20481;-72
2022/06/24 12:36:41;;;;;;;5.40;4.20;;;;;;;;;;5051565;28;20466;-72
2022/06/24 12:39:13;;;;;;;4.97;3.53;;;;;;;;;;5058531;28;20449;-71
2022/06/24 12:41:44;;;;;;;4.20;3.77;;;;;;;;;;5053812;28;20446;-72
2022/06/24 12:44:12;;;;;;;4.10;3.70;;;;;;;;;;5052886;28;20453;-72
2022/06/24 12:50:35;;;;;;;7.43;4.90;;;;;;;;;;5053185;28;20834;-72
2022/06/24 12:52:30;;;;;;;3.80;3.00;;;;;;;;;;5067396;28;20433;-72
2022/06/24 12:54:58;;;;;;;4.93;3.63;;;;;;;;;;5059640;28;20472;-72
2022/06/24 12:57:26;;;;;;;4.40;3.33;;;;;;;;;;5062269;28;20463;-72
2022/06/24 12:59:54;;;;;;;5.30;3.77;;;;;;;;;;5063651;28;20452;-72
2022/06/24 13:02:26;;;;;;;5.37;3.70;;;;;;;;;;5059909;28;20446;-72
2022/06/24 13:04:54;;;;;;;8.80;4.10;;;;;;;;;;5057997;28;20904;-72
2022/06/24 13:07:23;;;;;;;7.00;3.10;;;;;;;;;;5073297;28;20448;-72
2022/06/24 13:09:51;;;;;;;3.77;2.43;;;;;;;;;;5067115;28;20481;-72
2022/06/24 13:12:19;;;;;;;5.70;2.87;;;;;;;;;;5052353;28;20468;-71
2022/06/24 13:14:52;;;;;;;6.20;2.90;;;;;;;;;;5060250;28;20464;-72
2022/06/24 13:17:20;;;;;;;5.10;2.80;;;;;;;;;;5072577;28;20791;-73
2022/06/24 13:19:49;;;;;;;6.73;3.67;;;;;;;;;;5065186;28;20456;-72
2022/06/24 13:22:18;;;;;;;4.20;2.60;;;;;;;;;;5068146;28;21165;-71
2022/06/24 13:24:46;;;;;;;5.33;2.97;;;;;;;;;;5065370;28;20490;-72
2022/06/24 13:27:15;;;;;;;6.53;2.67;;;;;;;;;;5071443;28;20447;-70
2022/06/24 13:29:42;;;;;;;5.23;3.00;;;;;;;;;;5070964;28;20480;-73
2022/06/24 13:32:11;;;;;;;4.97;2.70;;;;;;;;;;5058102;28;20522;-73
2022/06/24 13:34:39;;;;;;;6.40;2.80;;;;;;;;;;5071186;28;20444;-72
2022/06/24 13:37:09;;;;;;;4.87;2.40;;;;;;;;;;5067494;28;20461;-73
2022/06/24 13:39:37;;;;;;;4.10;2.80;;;;;;;;;;5061472;28;20471;-72
2022/06/24 13:42:06;;;;;;;3.70;2.27;;;;;;;;;;5053384;28;20454;-73
2022/06/24 13:44:35;;;;;;;3.70;2.20;;;;;;;;;;5052547;28;20560;-73
2022/06/24 13:47:04;;;;;;;4.37;2.40;;;;;;;;;;5064597;28;20456;-72
2022/06/24 13:49:32;;;;;;;4.30;3.07;;;;;;;;;;5064603;28;20488;-71
2022/06/24 13:52:00;;;;;;;4.63;2.77;;;;;;;;;;5070756;28;20559;-70
2022/06/24 13:54:30;;;;;;;7.40;3.10;;;;;;;;;;5050305;28;20461;-71
2022/06/24 13:56:58;;;;;;;7.43;2.77;;;;;;;;;;5051095;28;20483;-73
2022/06/24 13:59:26;;;;;;;5.23;3.00;;;;;;;;;;5058473;28;20982;-74
2022/06/24 14:02:09;;;;;;;4.70;2.80;;;;;;;;;;5059001;28;20457;-73
2022/06/24 14:04:45;;;;;;;3.90;2.83;;;;;;;;;;5052041;28;20456;-73
2022/06/24 14:07:13;;;;;;;6.70;4.07;;;;;;;;;;5050808;28;21225;-72
2022/06/24 14:09:43;;;;;;;10.40;3.67;;;;;;;;;;5050373;28;20495;-73
2022/06/24 14:12:11;;;;;;;6.10;4.37;;;;;;;;;;5049895;28;20445;-73
2022/06/24 14:14:42;;;;;;;5.10;3.70;;;;;;;;;;5054112;28;20465;-73
2022/06/24 14:17:11;;;;;;;5.83;3.80;;;;;;;;;;5061085;28;20463;-72
2022/06/24 14:19:38;;;;;;;5.47;3.97;;;;;;;;;;5069122;28;20440;-72
2022/06/24 14:22:09;;;;;;;8.33;3.77;;;;;;;;;;5069836;28;20456;-72
2022/06/24 14:24:36;;;;;;;7.73;3.90;;;;;;;;;;5070164;28;20535;-72
2022/06/24 14:27:07;;;;;;;10.30;3.73;;;;;;;;;;5070346;28;20464;-72
2022/06/24 14:29:35;;;;;;;5.50;3.90;;;;;;;;;;5070511;28;20480;-72
2022/06/24 14:32:07;;;;;;;5.53;3.67;;;;;;;;;;5070823;28;20460;-72
2022/06/24 14:34:36;;;;;;;8.50;4.60;;;;;;;;;;5069876;28;20523;-72
2022/06/24 14:40:10;;;;;;;6.27;3.77;;;;;;;;;;5069883;28;20893;-71
2022/06/24 14:42:39;;;;;;;7.47;3.90;;;;;;;;;;5056066;28;20449;-71
2022/06/24 14:45:08;;;;;;;6.37;3.97;;;;;;;;;;5067727;28;20974;-71
2022/06/24 14:47:40;;;;;;;6.97;4.00;;;;;;;;;;5069128;28;20457;-72
2022/06/24 14:50:09;;;;;;;6.83;3.40;;;;;;;;;;5070965;28;20882;-72
2022/06/24 14:52:37;;;;;;;4.00;3.47;;;;;;;;;;5061515;28;20458;-71
2022/06/24 14:55:05;;;;;;;7.60;4.23;;;;;;;;;;5058369;28;20919;-73
2022/06/24 14:57:33;;;;;;;10.30;4.13;;;;;;;;;;5066947;28;20500;-73
2022/06/24 15:00:04;;;;;;;6.17;3.43;;;;;;;;;;5057144;28;20493;-73
2022/06/24 15:02:32;;;;;;;6.90;3.17;;;;;;;;;;5056245;28;20452;-74
2022/06/24 15:05:00;;;;;;;6.97;3.37;;;;;;;;;;5070434;28;20517;-73
2022/06/24 15:07:31;;;;;;;8.13;3.90;;;;;;;;;;5066144;28;20514;-73
2022/06/24 15:10:12;;;;;;;4.00;2.70;;;;;;;;;;5058109;28;20480;-73
2022/06/24 15:12:41;;;;;;;5.40;3.40;;;;;;;;;;5062621;28;20460;-72
2022/06/24 15:15:14;;;;;;;5.57;3.30;;;;;;;;;;5071473;28;20444;-72